Portada
METAR-TAF:

METAR-TAF

Aeroports :

Cranfield, Anglaterra

latitud: 52-04N, longitud: 000-37W, altitud: 111 m

Observació

L'informe es va fer fa 6 hores i 49 minuts, a les 17:50 UTC
Vent 13 kt del Oest/Sud-Oest
Temperatura 7°C
Humitat 81%
Pressió 1010 hPa
Visibilitat 10 km o més
sense núvols per sota de 1500 mi sense presència de cumulonimbus.

METAR: EGTC 171750Z 25013KT CAVOK 07/04 Q1010

Hora: 00:39 (00:39 UTC)

Pronòstic

L'informe es va fer fa 10 hores i 41 minuts, a les 13:58 UTC
Pronòstic vàlid del 17 a les 15 UTC al 17 a les 19 UTC
Vent 15 kt del Oest/Sud-Oest
Visibilitat 10 km o més
Núvols disperses a una alçada de 2500 ft
Probabilitat 30% :
Temporalment
l' 17 a les 15 UTC al 17 a les 19 UTC
Vent 20 kt del Oest/Sud-Oest amb ràfegues de 30 kt
Visibilitat: 4000 m
Cel ennuvolat a una alçada de 1400 ft, Cumulonimbus.
xàfecs de pluja

TAF: EGTC 171358Z 1715/1719 24015KT 9999 SCT025 PROB30 TEMPO 1715/1719 25020G30KT 4000 +SHRA BKN014CB

Observacions i pronòstics meteorològics de més de 4000 aeroports (METAR i TAF).

Les estacions disponibles són els punts grocs i vermells al mapa.

Posi el ratolí al punt desitjat per veure el nom de l'estació.

Feu clic per veure les observacions i els pronòstics meteorològics.

Per canviar el mapa: feu clic els botons verds amb una creu de color negre per apropar; al botó verd amb un guió per allunyar la imatge; o en les fletxes verdes per a mapes adjacents.


METAR-TAF: